sensor_id;sensor_type;location;lat;lon;timestamp;temperature;humidity
23618;DHT22;18207;32.078;34.818;2023-07-20T00:01:12;32.50;48.70
23618;DHT22;18207;32.078;34.818;2023-07-20T00:03:42;32.50;48.70
23618;DHT22;18207;32.078;34.818;2023-07-20T00:06:12;32.50;48.70
23618;DHT22;18207;32.078;34.818;2023-07-20T00:08:42;32.50;48.70
23618;DHT22;18207;32.078;34.818;2023-07-20T00:11:14;32.40;48.70
23618;DHT22;18207;32.078;34.818;2023-07-20T00:13:44;32.40;48.80
23618;DHT22;18207;32.078;34.818;2023-07-20T00:16:14;32.40;48.70
23618;DHT22;18207;32.078;34.818;2023-07-20T00:18:44;32.40;48.80
23618;DHT22;18207;32.078;34.818;2023-07-20T00:21:15;32.40;48.80
23618;DHT22;18207;32.078;34.818;2023-07-20T00:23:44;32.40;48.90
23618;DHT22;18207;32.078;34.818;2023-07-20T00:26:16;32.40;48.90
23618;DHT22;18207;32.078;34.818;2023-07-20T00:28:49;32.40;48.90
23618;DHT22;18207;32.078;34.818;2023-07-20T00:31:20;32.30;48.90
23618;DHT22;18207;32.078;34.818;2023-07-20T00:33:50;32.30;48.90
23618;DHT22;18207;32.078;34.818;2023-07-20T00:36:21;32.40;48.90
23618;DHT22;18207;32.078;34.818;2023-07-20T00:38:51;32.30;48.80
23618;DHT22;18207;32.078;34.818;2023-07-20T00:41:23;32.30;48.80
23618;DHT22;18207;32.078;34.818;2023-07-20T00:43:57;32.30;48.90
23618;DHT22;18207;32.078;34.818;2023-07-20T00:46:27;32.30;48.90
23618;DHT22;18207;32.078;34.818;2023-07-20T00:49:00;32.30;49.00
23618;DHT22;18207;32.078;34.818;2023-07-20T00:51:32;32.30;48.90
23618;DHT22;18207;32.078;34.818;2023-07-20T00:54:03;32.30;49.00
23618;DHT22;18207;32.078;34.818;2023-07-20T00:56:36;32.30;49.00
23618;DHT22;18207;32.078;34.818;2023-07-20T00:59:06;32.30;49.00
23618;DHT22;18207;32.078;34.818;2023-07-20T01:01:37;32.20;49.00
23618;DHT22;18207;32.078;34.818;2023-07-20T01:04:07;32.20;49.00
23618;DHT22;18207;32.078;34.818;2023-07-20T01:06:44;32.20;49.00
23618;DHT22;18207;32.078;34.818;2023-07-20T01:09:21;32.20;49.20
23618;DHT22;18207;32.078;34.818;2023-07-20T01:12:05;32.20;49.10
23618;DHT22;18207;32.078;34.818;2023-07-20T01:14:37;32.20;49.20
23618;DHT22;18207;32.078;34.818;2023-07-20T01:17:08;32.20;49.20
23618;DHT22;18207;32.078;34.818;2023-07-20T01:19:39;32.20;49.10
23618;DHT22;18207;32.078;34.818;2023-07-20T01:22:19;32.20;49.10
23618;DHT22;18207;32.078;34.818;2023-07-20T01:28:30;32.10;49.00
23618;DHT22;18207;32.078;34.818;2023-07-20T01:31:30;32.10;48.90
23618;DHT22;18207;32.078;34.818;2023-07-20T01:34:03;32.10;48.80
23618;DHT22;18207;32.078;34.818;2023-07-20T01:36:36;32.10;48.80
23618;DHT22;18207;32.078;34.818;2023-07-20T01:39:09;32.10;48.70
23618;DHT22;18207;32.078;34.818;2023-07-20T01:41:41;32.00;48.60
23618;DHT22;18207;32.078;34.818;2023-07-20T01:44:13;32.00;48.60
23618;DHT22;18207;32.078;34.818;2023-07-20T01:46:45;32.00;48.70
23618;DHT22;18207;32.078;34.818;2023-07-20T01:49:15;32.00;48.70
23618;DHT22;18207;32.078;34.818;2023-07-20T01:51:45;31.90;48.60
23618;DHT22;18207;32.078;34.818;2023-07-20T01:54:16;31.90;48.70
23618;DHT22;18207;32.078;34.818;2023-07-20T01:56:46;31.80;48.70
23618;DHT22;18207;32.078;34.818;2023-07-20T01:59:16;31.80;48.70
23618;DHT22;18207;32.078;34.818;2023-07-20T02:01:48;31.80;48.70
23618;DHT22;18207;32.078;34.818;2023-07-20T02:04:18;31.80;48.70
23618;DHT22;18207;32.078;34.818;2023-07-20T02:06:48;31.80;48.70
23618;DHT22;18207;32.078;34.818;2023-07-20T02:09:19;31.80;48.70
23618;DHT22;18207;32.078;34.818;2023-07-20T02:11:49;31.80;48.80
23618;DHT22;18207;32.078;34.818;2023-07-20T02:14:20;31.80;49.40
23618;DHT22;18207;32.078;34.818;2023-07-20T02:16:51;31.70;48.80
23618;DHT22;18207;32.078;34.818;2023-07-20T02:19:25;31.70;48.80
23618;DHT22;18207;32.078;34.818;2023-07-20T02:21:56;31.80;48.90
23618;DHT22;18207;32.078;34.818;2023-07-20T02:24:26;31.70;48.80
23618;DHT22;18207;32.078;34.818;2023-07-20T02:26:56;31.70;48.90
23618;DHT22;18207;32.078;34.818;2023-07-20T02:29:27;31.80;48.90
23618;DHT22;18207;32.078;34.818;2023-07-20T02:31:59;31.70;48.90
23618;DHT22;18207;32.078;34.818;2023-07-20T02:34:30;31.70;48.70
23618;DHT22;18207;32.078;34.818;2023-07-20T02:37:01;31.70;48.70
23618;DHT22;18207;32.078;34.818;2023-07-20T02:39:32;31.60;48.60
23618;DHT22;18207;32.078;34.818;2023-07-20T02:42:02;31.60;48.50
23618;DHT22;18207;32.078;34.818;2023-07-20T02:44:33;31.60;48.50
23618;DHT22;18207;32.078;34.818;2023-07-20T02:47:12;31.60;48.50
23618;DHT22;18207;32.078;34.818;2023-07-20T02:49:43;31.50;48.40
23618;DHT22;18207;32.078;34.818;2023-07-20T02:52:13;31.50;48.40
23618;DHT22;18207;32.078;34.818;2023-07-20T02:54:45;31.40;48.30
23618;DHT22;18207;32.078;34.818;2023-07-20T02:57:16;31.40;48.30
23618;DHT22;18207;32.078;34.818;2023-07-20T02:59:46;31.40;48.30
23618;DHT22;18207;32.078;34.818;2023-07-20T03:02:18;31.40;48.30
23618;DHT22;18207;32.078;34.818;2023-07-20T03:04:48;31.40;48.40
23618;DHT22;18207;32.078;34.818;2023-07-20T03:07:18;31.40;48.40
23618;DHT22;18207;32.078;34.818;2023-07-20T03:09:49;31.30;48.50
23618;DHT22;18207;32.078;34.818;2023-07-20T03:12:19;31.40;48.50
23618;DHT22;18207;32.078;34.818;2023-07-20T03:14:49;31.40;48.50
23618;DHT22;18207;32.078;34.818;2023-07-20T03:17:22;31.40;48.50
23618;DHT22;18207;32.078;34.818;2023-07-20T03:19:53;31.40;48.40
23618;DHT22;18207;32.078;34.818;2023-07-20T03:22:23;31.40;48.50
23618;DHT22;18207;32.078;34.818;2023-07-20T03:24:54;31.40;48.40
23618;DHT22;18207;32.078;34.818;2023-07-20T03:27:24;31.40;48.40
23618;DHT22;18207;32.078;34.818;2023-07-20T03:29:56;31.40;48.30
23618;DHT22;18207;32.078;34.818;2023-07-20T03:32:28;31.40;48.30
23618;DHT22;18207;32.078;34.818;2023-07-20T03:34:59;31.40;48.20
23618;DHT22;18207;32.078;34.818;2023-07-20T03:37:28;31.40;48.10
23618;DHT22;18207;32.078;34.818;2023-07-20T03:39:59;31.40;48.00
23618;DHT22;18207;32.078;34.818;2023-07-20T03:42:30;31.40;48.00
23618;DHT22;18207;32.078;34.818;2023-07-20T03:45:01;31.40;48.00
23618;DHT22;18207;32.078;34.818;2023-07-20T03:47:34;31.40;47.90
23618;DHT22;18207;32.078;34.818;2023-07-20T03:50:05;31.40;47.90
23618;DHT22;18207;32.078;34.818;2023-07-20T03:52:37;31.40;47.90
23618;DHT22;18207;32.078;34.818;2023-07-20T03:55:08;31.40;47.80
23618;DHT22;18207;32.078;34.818;2023-07-20T03:57:38;31.40;47.80
23618;DHT22;18207;32.078;34.818;2023-07-20T04:00:10;31.30;47.70
23618;DHT22;18207;32.078;34.818;2023-07-20T04:02:44;31.30;47.80
23618;DHT22;18207;32.078;34.818;2023-07-20T04:05:15;31.30;47.70
23618;DHT22;18207;32.078;34.818;2023-07-20T04:07:45;31.30;47.70
23618;DHT22;18207;32.078;34.818;2023-07-20T04:10:16;31.30;47.80
23618;DHT22;18207;32.078;34.818;2023-07-20T04:12:46;31.40;47.80
23618;DHT22;18207;32.078;34.818;2023-07-20T04:15:17;31.40;47.80
23618;DHT22;18207;32.078;34.818;2023-07-20T04:17:49;31.40;47.80
23618;DHT22;18207;32.078;34.818;2023-07-20T04:20:20;31.40;47.80
23618;DHT22;18207;32.078;34.818;2023-07-20T04:22:51;31.40;47.80
23618;DHT22;18207;32.078;34.818;2023-07-20T04:25:21;31.40;47.80
23618;DHT22;18207;32.078;34.818;2023-07-20T04:27:52;31.40;47.80
23618;DHT22;18207;32.078;34.818;2023-07-20T04:30:23;31.50;47.90
23618;DHT22;18207;32.078;34.818;2023-07-20T04:32:56;31.50;47.90
23618;DHT22;18207;32.078;34.818;2023-07-20T04:35:48;31.50;47.90
23618;DHT22;18207;32.078;34.818;2023-07-20T04:38:21;31.60;47.80
23618;DHT22;18207;32.078;34.818;2023-07-20T04:40:52;31.60;47.80
23618;DHT22;18207;32.078;34.818;2023-07-20T04:43:23;31.60;47.80
23618;DHT22;18207;32.078;34.818;2023-07-20T04:45:54;31.60;47.80
23618;DHT22;18207;32.078;34.818;2023-07-20T04:48:28;31.70;47.90
23618;DHT22;18207;32.078;34.818;2023-07-20T04:50:59;31.70;48.00
23618;DHT22;18207;32.078;34.818;2023-07-20T04:53:29;31.70;47.90
23618;DHT22;18207;32.078;34.818;2023-07-20T04:55:59;31.70;48.00
23618;DHT22;18207;32.078;34.818;2023-07-20T04:58:30;31.70;48.00
23618;DHT22;18207;32.078;34.818;2023-07-20T05:01:00;31.80;48.80
23618;DHT22;18207;32.078;34.818;2023-07-20T05:03:32;31.80;48.30
23618;DHT22;18207;32.078;34.818;2023-07-20T05:06:03;31.80;48.30
23618;DHT22;18207;32.078;34.818;2023-07-20T05:08:33;31.80;48.30
23618;DHT22;18207;32.078;34.818;2023-07-20T05:11:03;31.90;48.30
23618;DHT22;18207;32.078;34.818;2023-07-20T05:13:35;31.90;48.30
23618;DHT22;18207;32.078;34.818;2023-07-20T05:16:06;32.00;48.40
23618;DHT22;18207;32.078;34.818;2023-07-20T05:18:39;32.00;48.40
23618;DHT22;18207;32.078;34.818;2023-07-20T05:21:09;32.10;48.40
23618;DHT22;18207;32.078;34.818;2023-07-20T05:23:39;32.10;48.50
23618;DHT22;18207;32.078;34.818;2023-07-20T05:26:09;32.10;48.40
23618;DHT22;18207;32.078;34.818;2023-07-20T05:28:40;32.20;48.40
23618;DHT22;18207;32.078;34.818;2023-07-20T05:31:10;32.20;48.30
23618;DHT22;18207;32.078;34.818;2023-07-20T05:33:42;32.30;48.40
23618;DHT22;18207;32.078;34.818;2023-07-20T05:36:12;32.30;48.50
23618;DHT22;18207;32.078;34.818;2023-07-20T05:38:42;32.30;48.50
23618;DHT22;18207;32.078;34.818;2023-07-20T05:41:12;32.40;48.50
23618;DHT22;18207;32.078;34.818;2023-07-20T05:43:42;32.40;48.50
23618;DHT22;18207;32.078;34.818;2023-07-20T05:46:12;32.50;48.60
23618;DHT22;18207;32.078;34.818;2023-07-20T05:48:45;32.50;48.60
23618;DHT22;18207;32.078;34.818;2023-07-20T05:51:15;32.60;48.50
23618;DHT22;18207;32.078;34.818;2023-07-20T05:53:45;32.60;48.60
23618;DHT22;18207;32.078;34.818;2023-07-20T05:56:16;32.70;48.60
23618;DHT22;18207;32.078;34.818;2023-07-20T05:58:47;32.70;48.50
23618;DHT22;18207;32.078;34.818;2023-07-20T06:01:17;32.80;48.50
23618;DHT22;18207;32.078;34.818;2023-07-20T06:03:50;32.80;48.50
23618;DHT22;18207;32.078;34.818;2023-07-20T06:06:21;32.80;48.50
23618;DHT22;18207;32.078;34.818;2023-07-20T06:08:51;32.80;48.40
23618;DHT22;18207;32.078;34.818;2023-07-20T06:11:22;32.90;48.40
23618;DHT22;18207;32.078;34.818;2023-07-20T06:13:52;32.90;48.30
23618;DHT22;18207;32.078;34.818;2023-07-20T06:16:22;33.00;48.20
23618;DHT22;18207;32.078;34.818;2023-07-20T06:18:55;33.00;48.20
23618;DHT22;18207;32.078;34.818;2023-07-20T06:21:26;33.10;48.20
23618;DHT22;18207;32.078;34.818;2023-07-20T06:23:56;33.10;48.20
23618;DHT22;18207;32.078;34.818;2023-07-20T06:26:26;33.10;48.20
23618;DHT22;18207;32.078;34.818;2023-07-20T06:28:57;33.20;48.20
23618;DHT22;18207;32.078;34.818;2023-07-20T06:31:28;33.30;48.20
23618;DHT22;18207;32.078;34.818;2023-07-20T06:34:00;33.30;48.10
23618;DHT22;18207;32.078;34.818;2023-07-20T06:36:30;33.40;48.00
23618;DHT22;18207;32.078;34.818;2023-07-20T06:39:00;33.40;48.00
23618;DHT22;18207;32.078;34.818;2023-07-20T06:41:34;33.50;47.90
23618;DHT22;18207;32.078;34.818;2023-07-20T06:44:07;33.50;47.80
23618;DHT22;18207;32.078;34.818;2023-07-20T06:46:37;33.60;47.90
23618;DHT22;18207;32.078;34.818;2023-07-20T06:49:09;33.60;47.80
23618;DHT22;18207;32.078;34.818;2023-07-20T06:51:43;33.70;47.70
23618;DHT22;18207;32.078;34.818;2023-07-20T06:54:13;33.70;47.60
23618;DHT22;18207;32.078;34.818;2023-07-20T06:56:50;33.80;47.50
23618;DHT22;18207;32.078;34.818;2023-07-20T06:59:23;33.80;47.40
23618;DHT22;18207;32.078;34.818;2023-07-20T07:01:53;33.90;47.50
23618;DHT22;18207;32.078;34.818;2023-07-20T07:04:25;34.00;47.30
23618;DHT22;18207;32.078;34.818;2023-07-20T07:06:56;34.00;47.20
23618;DHT22;18207;32.078;34.818;2023-07-20T07:09:26;34.10;47.10
23618;DHT22;18207;32.078;34.818;2023-07-20T07:11:57;34.10;47.10
23618;DHT22;18207;32.078;34.818;2023-07-20T07:14:27;34.10;46.90
23618;DHT22;18207;32.078;34.818;2023-07-20T07:16:59;34.20;46.90
23618;DHT22;18207;32.078;34.818;2023-07-20T07:19:33;34.20;46.70
23618;DHT22;18207;32.078;34.818;2023-07-20T07:22:04;34.30;46.60
23618;DHT22;18207;32.078;34.818;2023-07-20T07:24:35;34.40;46.60
23618;DHT22;18207;32.078;34.818;2023-07-20T07:27:06;34.40;46.50
23618;DHT22;18207;32.078;34.818;2023-07-20T07:29:36;34.50;46.50
23618;DHT22;18207;32.078;34.818;2023-07-20T07:32:07;34.50;46.30
23618;DHT22;18207;32.078;34.818;2023-07-20T07:34:40;34.60;46.30
23618;DHT22;18207;32.078;34.818;2023-07-20T07:37:10;34.60;46.30
23618;DHT22;18207;32.078;34.818;2023-07-20T07:39:41;34.60;46.30
23618;DHT22;18207;32.078;34.818;2023-07-20T07:42:12;34.70;46.30
23618;DHT22;18207;32.078;34.818;2023-07-20T07:44:42;34.70;46.30
23618;DHT22;18207;32.078;34.818;2023-07-20T07:47:13;34.80;46.40
23618;DHT22;18207;32.078;34.818;2023-07-20T07:49:44;34.80;46.30
23618;DHT22;18207;32.078;34.818;2023-07-20T07:52:15;34.90;46.30
23618;DHT22;18207;32.078;34.818;2023-07-20T07:54:45;34.90;46.30
23618;DHT22;18207;32.078;34.818;2023-07-20T07:57:15;35.00;46.40
23618;DHT22;18207;32.078;34.818;2023-07-20T07:59:45;35.00;46.40
23618;DHT22;18207;32.078;34.818;2023-07-20T08:02:16;35.10;46.60
23618;DHT22;18207;32.078;34.818;2023-07-20T08:04:48;35.10;46.50
23618;DHT22;18207;32.078;34.818;2023-07-20T08:07:19;35.10;46.50
23618;DHT22;18207;32.078;34.818;2023-07-20T08:09:49;35.20;46.60
23618;DHT22;18207;32.078;34.818;2023-07-20T08:12:21;35.20;46.40
23618;DHT22;18207;32.078;34.818;2023-07-20T08:14:51;35.20;46.40
23618;DHT22;18207;32.078;34.818;2023-07-20T08:17:22;35.30;46.50
23618;DHT22;18207;32.078;34.818;2023-07-20T08:19:55;35.30;46.40
23618;DHT22;18207;32.078;34.818;2023-07-20T08:22:25;35.30;46.20
23618;DHT22;18207;32.078;34.818;2023-07-20T08:24:55;35.40;46.30
23618;DHT22;18207;32.078;34.818;2023-07-20T08:27:25;35.40;46.30
23618;DHT22;18207;32.078;34.818;2023-07-20T08:29:57;35.40;46.30
23618;DHT22;18207;32.078;34.818;2023-07-20T08:32:27;35.40;46.30
23618;DHT22;18207;32.078;34.818;2023-07-20T08:34:59;35.50;46.30
23618;DHT22;18207;32.078;34.818;2023-07-20T08:37:31;35.50;46.20
23618;DHT22;18207;32.078;34.818;2023-07-20T08:40:01;35.50;46.20
23618;DHT22;18207;32.078;34.818;2023-07-20T08:42:33;35.50;46.10
23618;DHT22;18207;32.078;34.818;2023-07-20T08:45:06;35.60;46.10
23618;DHT22;18207;32.078;34.818;2023-07-20T08:47:39;35.60;46.10
23618;DHT22;18207;32.078;34.818;2023-07-20T08:50:14;35.60;46.10
23618;DHT22;18207;32.078;34.818;2023-07-20T08:52:45;35.60;45.90
23618;DHT22;18207;32.078;34.818;2023-07-20T08:55:19;35.70;45.90
23618;DHT22;18207;32.078;34.818;2023-07-20T08:57:51;35.70;45.70
23618;DHT22;18207;32.078;34.818;2023-07-20T09:00:24;35.70;45.60
23618;DHT22;18207;32.078;34.818;2023-07-20T09:02:57;35.70;45.50
23618;DHT22;18207;32.078;34.818;2023-07-20T09:05:33;35.70;45.40
23618;DHT22;18207;32.078;34.818;2023-07-20T09:08:03;35.70;45.30
23618;DHT22;18207;32.078;34.818;2023-07-20T09:10:34;35.70;45.30
23618;DHT22;18207;32.078;34.818;2023-07-20T09:13:04;35.70;45.90
23618;DHT22;18207;32.078;34.818;2023-07-20T09:15:37;35.80;45.30
23618;DHT22;18207;32.078;34.818;2023-07-20T09:18:07;35.80;45.10
23618;DHT22;18207;32.078;34.818;2023-07-20T09:20:39;35.80;44.80
23618;DHT22;18207;32.078;34.818;2023-07-20T09:23:10;35.80;44.70
23618;DHT22;18207;32.078;34.818;2023-07-20T09:25:40;35.70;44.70
23618;DHT22;18207;32.078;34.818;2023-07-20T09:28:10;35.80;44.70
23618;DHT22;18207;32.078;34.818;2023-07-20T09:30:41;35.80;44.70
23618;DHT22;18207;32.078;34.818;2023-07-20T09:33:21;35.80;44.70
23618;DHT22;18207;32.078;34.818;2023-07-20T09:36:03;35.90;44.80
23618;DHT22;18207;32.078;34.818;2023-07-20T09:38:54;35.90;44.30
23618;DHT22;18207;32.078;34.818;2023-07-20T09:41:27;35.90;44.10
23618;DHT22;18207;32.078;34.818;2023-07-20T09:44:01;35.90;43.90
23618;DHT22;18207;32.078;34.818;2023-07-20T09:46:54;35.90;43.70
23618;DHT22;18207;32.078;34.818;2023-07-20T09:49:26;35.90;43.50
23618;DHT22;18207;32.078;34.818;2023-07-20T09:52:19;36.00;43.30
23618;DHT22;18207;32.078;34.818;2023-07-20T09:54:53;36.00;43.00
23618;DHT22;18207;32.078;34.818;2023-07-20T09:57:26;36.00;42.90
23618;DHT22;18207;32.078;34.818;2023-07-20T09:59:57;36.00;42.60
23618;DHT22;18207;32.078;34.818;2023-07-20T10:02:33;36.00;42.30
23618;DHT22;18207;32.078;34.818;2023-07-20T10:05:08;36.00;42.00
23618;DHT22;18207;32.078;34.818;2023-07-20T10:07:47;36.00;41.90
23618;DHT22;18207;32.078;34.818;2023-07-20T10:10:41;36.00;41.60
23618;DHT22;18207;32.078;34.818;2023-07-20T10:13:17;36.00;41.60
23618;DHT22;18207;32.078;34.818;2023-07-20T10:15:53;36.00;41.40
23618;DHT22;18207;32.078;34.818;2023-07-20T10:18:30;36.00;41.20
23618;DHT22;18207;32.078;34.818;2023-07-20T10:21:06;36.00;40.90
23618;DHT22;18207;32.078;34.818;2023-07-20T10:23:43;36.00;40.80
23618;DHT22;18207;32.078;34.818;2023-07-20T10:26:14;36.00;40.70
23618;DHT22;18207;32.078;34.818;2023-07-20T10:28:45;36.00;40.60
23618;DHT22;18207;32.078;34.818;2023-07-20T10:31:16;36.00;40.40
23618;DHT22;18207;32.078;34.818;2023-07-20T10:33:47;36.00;40.30
23618;DHT22;18207;32.078;34.818;2023-07-20T10:36:24;36.00;40.30
23618;DHT22;18207;32.078;34.818;2023-07-20T10:39:00;36.00;40.00
23618;DHT22;18207;32.078;34.818;2023-07-20T10:41:34;36.00;40.10
23618;DHT22;18207;32.078;34.818;2023-07-20T10:44:07;36.00;39.90
23618;DHT22;18207;32.078;34.818;2023-07-20T10:46:45;36.00;40.00
23618;DHT22;18207;32.078;34.818;2023-07-20T10:49:16;36.00;39.90
23618;DHT22;18207;32.078;34.818;2023-07-20T10:51:58;36.10;40.10
23618;DHT22;18207;32.078;34.818;2023-07-20T10:54:47;36.10;40.00
23618;DHT22;18207;32.078;34.818;2023-07-20T10:57:27;36.10;39.80
23618;DHT22;18207;32.078;34.818;2023-07-20T11:00:10;36.10;40.00
23618;DHT22;18207;32.078;34.818;2023-07-20T11:02:43;36.10;39.80
23618;DHT22;18207;32.078;34.818;2023-07-20T11:05:37;36.10;40.00
23618;DHT22;18207;32.078;34.818;2023-07-20T11:08:12;36.10;40.30
23618;DHT22;18207;32.078;34.818;2023-07-20T11:11:25;36.10;39.80
23618;DHT22;18207;32.078;34.818;2023-07-20T11:13:58;36.10;39.60
23618;DHT22;18207;32.078;34.818;2023-07-20T11:16:37;36.10;39.80
23618;DHT22;18207;32.078;34.818;2023-07-20T11:19:17;36.10;39.60
23618;DHT22;18207;32.078;34.818;2023-07-20T11:21:52;36.10;39.60
23618;DHT22;18207;32.078;34.818;2023-07-20T11:24:31;36.10;39.70
23618;DHT22;18207;32.078;34.818;2023-07-20T11:27:04;36.10;39.70
23618;DHT22;18207;32.078;34.818;2023-07-20T11:29:35;36.10;39.70
23618;DHT22;18207;32.078;34.818;2023-07-20T11:32:07;36.10;39.70
23618;DHT22;18207;32.078;34.818;2023-07-20T11:34:39;36.00;39.70
23618;DHT22;18207;32.078;34.818;2023-07-20T11:37:09;36.00;39.70
23618;DHT22;18207;32.078;34.818;2023-07-20T11:39:39;36.00;39.70
23618;DHT22;18207;32.078;34.818;2023-07-20T11:42:12;36.00;39.70
23618;DHT22;18207;32.078;34.818;2023-07-20T11:44:51;36.00;39.80
23618;DHT22;18207;32.078;34.818;2023-07-20T11:47:29;36.00;40.00
23618;DHT22;18207;32.078;34.818;2023-07-20T11:50:04;36.00;40.20
23618;DHT22;18207;32.078;34.818;2023-07-20T11:52:35;36.00;40.30
23618;DHT22;18207;32.078;34.818;2023-07-20T11:55:07;36.00;40.40
23618;DHT22;18207;32.078;34.818;2023-07-20T11:57:40;36.00;40.40
23618;DHT22;18207;32.078;34.818;2023-07-20T12:00:11;36.00;40.60
23618;DHT22;18207;32.078;34.818;2023-07-20T12:02:44;36.00;40.70
23618;DHT22;18207;32.078;34.818;2023-07-20T12:05:15;36.00;40.70
23618;DHT22;18207;32.078;34.818;2023-07-20T12:07:45;36.00;40.70
23618;DHT22;18207;32.078;34.818;2023-07-20T12:10:24;36.00;40.80
23618;DHT22;18207;32.078;34.818;2023-07-20T12:13:01;36.00;41.00
23618;DHT22;18207;32.078;34.818;2023-07-20T12:15:33;36.00;40.90
23618;DHT22;18207;32.078;34.818;2023-07-20T12:18:05;36.00;40.90
23618;DHT22;18207;32.078;34.818;2023-07-20T12:20:36;35.90;40.70
23618;DHT22;18207;32.078;34.818;2023-07-20T12:23:09;35.90;40.80
23618;DHT22;18207;32.078;34.818;2023-07-20T12:25:41;35.90;40.80
23618;DHT22;18207;32.078;34.818;2023-07-20T12:28:16;35.80;40.70
23618;DHT22;18207;32.078;34.818;2023-07-20T12:30:47;35.80;40.70
23618;DHT22;18207;32.078;34.818;2023-07-20T12:33:24;35.80;40.60
23618;DHT22;18207;32.078;34.818;2023-07-20T12:35:54;35.70;40.40
23618;DHT22;18207;32.078;34.818;2023-07-20T12:38:26;35.70;40.30
23618;DHT22;18207;32.078;34.818;2023-07-20T12:40:58;35.70;40.40
23618;DHT22;18207;32.078;34.818;2023-07-20T12:43:32;35.70;40.50
23618;DHT22;18207;32.078;34.818;2023-07-20T12:46:02;35.70;40.60
23618;DHT22;18207;32.078;34.818;2023-07-20T12:48:33;35.60;40.50
23618;DHT22;18207;32.078;34.818;2023-07-20T12:51:04;35.60;40.70
23618;DHT22;18207;32.078;34.818;2023-07-20T12:53:36;35.60;40.80
23618;DHT22;18207;32.078;34.818;2023-07-20T12:56:06;35.60;40.90
23618;DHT22;18207;32.078;34.818;2023-07-20T12:58:41;35.50;40.80
23618;DHT22;18207;32.078;34.818;2023-07-20T13:01:11;35.50;40.70
23618;DHT22;18207;32.078;34.818;2023-07-20T13:03:43;35.50;40.80
23618;DHT22;18207;32.078;34.818;2023-07-20T13:06:16;35.50;40.90
23618;DHT22;18207;32.078;34.818;2023-07-20T13:08:50;35.50;40.90
23618;DHT22;18207;32.078;34.818;2023-07-20T13:11:24;35.40;40.80
23618;DHT22;18207;32.078;34.818;2023-07-20T13:13:56;35.40;40.90
23618;DHT22;18207;32.078;34.818;2023-07-20T13:16:26;35.40;40.80
23618;DHT22;18207;32.078;34.818;2023-07-20T13:18:57;35.40;40.80
23618;DHT22;18207;32.078;34.818;2023-07-20T13:21:27;35.40;40.90
23618;DHT22;18207;32.078;34.818;2023-07-20T13:23:58;35.30;40.90
23618;DHT22;18207;32.078;34.818;2023-07-20T13:26:28;35.30;40.80
23618;DHT22;18207;32.078;34.818;2023-07-20T13:29:00;35.40;40.90
23618;DHT22;18207;32.078;34.818;2023-07-20T13:31:30;35.40;40.90
23618;DHT22;18207;32.078;34.818;2023-07-20T13:34:02;35.30;40.80
23618;DHT22;18207;32.078;34.818;2023-07-20T13:36:34;35.30;40.80
23618;DHT22;18207;32.078;34.818;2023-07-20T13:39:05;35.30;40.70
23618;DHT22;18207;32.078;34.818;2023-07-20T13:41:36;35.30;40.70
23618;DHT22;18207;32.078;34.818;2023-07-20T13:44:08;35.20;40.70
23618;DHT22;18207;32.078;34.818;2023-07-20T13:46:43;35.20;40.70
23618;DHT22;18207;32.078;34.818;2023-07-20T13:49:14;35.20;40.80
23618;DHT22;18207;32.078;34.818;2023-07-20T13:51:50;35.20;40.80
23618;DHT22;18207;32.078;34.818;2023-07-20T13:54:23;35.20;40.90
23618;DHT22;18207;32.078;34.818;2023-07-20T13:56:54;35.20;40.90
23618;DHT22;18207;32.078;34.818;2023-07-20T13:59:26;35.10;40.80
23618;DHT22;18207;32.078;34.818;2023-07-20T14:01:56;35.10;40.80
23618;DHT22;18207;32.078;34.818;2023-07-20T14:04:29;35.20;41.50
23618;DHT22;18207;32.078;34.818;2023-07-20T14:07:00;35.10;41.00
23618;DHT22;18207;32.078;34.818;2023-07-20T14:09:30;35.20;41.10
23618;DHT22;18207;32.078;34.818;2023-07-20T14:12:01;35.10;41.00
23618;DHT22;18207;32.078;34.818;2023-07-20T14:14:37;35.10;41.10
23618;DHT22;18207;32.078;34.818;2023-07-20T14:17:07;35.10;41.20
23618;DHT22;18207;32.078;34.818;2023-07-20T14:19:37;35.10;41.20
23618;DHT22;18207;32.078;34.818;2023-07-20T14:22:10;35.10;41.40
23618;DHT22;18207;32.078;34.818;2023-07-20T14:24:40;35.10;41.40
23618;DHT22;18207;32.078;34.818;2023-07-20T14:27:12;35.10;41.50
23618;DHT22;18207;32.078;34.818;2023-07-20T14:29:48;35.10;41.40
23618;DHT22;18207;32.078;34.818;2023-07-20T14:32:18;35.10;41.60
23618;DHT22;18207;32.078;34.818;2023-07-20T14:34:49;35.00;41.60
23618;DHT22;18207;32.078;34.818;2023-07-20T14:37:20;35.00;41.70
23618;DHT22;18207;32.078;34.818;2023-07-20T14:39:50;35.00;41.60
23618;DHT22;18207;32.078;34.818;2023-07-20T14:42:21;35.00;41.70
23618;DHT22;18207;32.078;34.818;2023-07-20T14:44:54;35.00;41.70
23618;DHT22;18207;32.078;34.818;2023-07-20T14:47:25;34.90;41.70
23618;DHT22;18207;32.078;34.818;2023-07-20T14:49:56;34.90;41.70
23618;DHT22;18207;32.078;34.818;2023-07-20T14:52:26;34.90;41.80
23618;DHT22;18207;32.078;34.818;2023-07-20T14:54:56;34.90;41.70
23618;DHT22;18207;32.078;34.818;2023-07-20T14:57:26;34.90;41.70
23618;DHT22;18207;32.078;34.818;2023-07-20T14:59:59;34.90;41.70
23618;DHT22;18207;32.078;34.818;2023-07-20T15:02:29;34.90;41.80
23618;DHT22;18207;32.078;34.818;2023-07-20T15:04:59;34.90;41.80
23618;DHT22;18207;32.078;34.818;2023-07-20T15:07:30;34.90;41.80
23618;DHT22;18207;32.078;34.818;2023-07-20T15:10:01;34.80;41.80
23618;DHT22;18207;32.078;34.818;2023-07-20T15:12:31;34.80;41.90
23618;DHT22;18207;32.078;34.818;2023-07-20T15:15:09;34.80;42.00
23618;DHT22;18207;32.078;34.818;2023-07-20T15:17:42;34.70;42.10
23618;DHT22;18207;32.078;34.818;2023-07-20T15:20:15;34.70;42.10
23618;DHT22;18207;32.078;34.818;2023-07-20T15:22:45;34.70;42.00
23618;DHT22;18207;32.078;34.818;2023-07-20T15:25:16;34.70;42.20
23618;DHT22;18207;32.078;34.818;2023-07-20T15:27:47;34.70;42.40
23618;DHT22;18207;32.078;34.818;2023-07-20T15:30:20;34.60;42.20
23618;DHT22;18207;32.078;34.818;2023-07-20T15:32:52;34.60;42.10
23618;DHT22;18207;32.078;34.818;2023-07-20T15:35:26;34.60;42.40
23618;DHT22;18207;32.078;34.818;2023-07-20T15:37:56;34.60;42.30
23618;DHT22;18207;32.078;34.818;2023-07-20T15:40:27;34.60;42.40
23618;DHT22;18207;32.078;34.818;2023-07-20T15:42:57;34.60;42.40
23618;DHT22;18207;32.078;34.818;2023-07-20T15:45:30;34.60;42.40
23618;DHT22;18207;32.078;34.818;2023-07-20T15:48:01;34.60;42.30
23618;DHT22;18207;32.078;34.818;2023-07-20T15:50:32;34.60;42.30